createdAt,value
2022-09-02T00:02:00.211Z,101688.41
2022-09-02T00:04:28.064Z,101685.22
2022-09-02T00:06:55.989Z,101685.91
2022-09-02T00:09:25.477Z,101681.38
2022-09-02T00:11:54.702Z,101677.75
2022-09-02T00:14:26.526Z,101675.75
2022-09-02T00:16:56.052Z,101669.38
2022-09-02T00:19:25.527Z,101669.38
2022-09-02T00:21:54.079Z,101670.38
2022-09-02T00:24:22.547Z,101668.75
2022-09-02T00:26:50.497Z,101667.19
2022-09-02T00:29:18.466Z,101668.88
2022-09-02T00:31:47.142Z,101667.19
2022-09-02T00:34:16.346Z,101675.72
2022-09-02T00:36:44.173Z,101671.69
2022-09-02T00:39:11.937Z,101672.28
2022-09-02T00:41:41.894Z,101674.56
2022-09-02T00:44:10.848Z,101680.31
2022-09-02T00:46:39.930Z,101671.84
2022-09-02T00:49:10.563Z,101661.16
2022-09-02T00:51:44.026Z,101656.97
2022-09-02T00:54:13.057Z,101667.09
2022-09-02T00:56:41.931Z,101656.69
2022-09-02T00:59:09.981Z,101662.19
2022-09-02T01:01:38.002Z,101658.94
2022-09-02T01:04:06.095Z,101655.59
2022-09-02T01:06:33.766Z,101648.84
2022-09-02T01:09:08.472Z,101655.88
2022-09-02T01:11:42.206Z,101659.53
2022-09-02T01:14:12.513Z,101652.81
2022-09-02T01:16:42.828Z,101644.97
2022-09-02T01:19:17.495Z,101642.72
2022-09-02T01:21:49.297Z,101640.72
2022-09-02T01:24:17.704Z,101643.56
2022-09-02T01:26:45.450Z,101649.75
2022-09-02T01:29:13.202Z,101642.88
2022-09-02T01:31:41.103Z,101656.22
2022-09-02T01:34:08.830Z,101643.03
2022-09-02T01:36:38.649Z,101644.81
2022-09-02T01:39:07.693Z,101637.94
2022-09-02T01:41:35.396Z,101640.78
2022-09-02T01:44:03.545Z,101638.25
2022-09-02T01:46:31.392Z,101638.25
2022-09-02T01:48:59.156Z,101628.56
2022-09-02T01:51:26.761Z,101628.84
2022-09-02T01:53:54.727Z,101628.69
2022-09-02T01:56:23.769Z,101626.03
2022-09-02T01:58:51.451Z,101626.47
2022-09-02T02:01:20.479Z,101617.63
2022-09-02T02:03:48.656Z,101623.66
2022-09-02T02:06:17.903Z,101620.00
2022-09-02T02:08:46.384Z,101622.66
2022-09-02T02:11:20.332Z,101619.16
2022-09-02T02:13:49.406Z,101623.66
2022-09-02T02:16:17.161Z,101627.47
2022-09-02T02:18:44.840Z,101619.47
2022-09-02T02:21:12.609Z,101614.94
2022-09-02T02:23:40.512Z,101619.47
2022-09-02T02:26:08.241Z,101613.13
2022-09-02T02:28:36.213Z,101615.78
2022-09-02T02:31:05.653Z,101608.47
2022-09-02T02:33:36.210Z,101612.13
2022-09-02T02:36:05.474Z,101607.63
2022-09-02T02:38:33.884Z,101607.63
2022-09-02T02:41:06.429Z,101612.13
2022-09-02T02:43:35.200Z,101603.13
2022-09-02T02:46:03.277Z,101608.47
2022-09-02T02:48:32.788Z,101603.13
2022-09-02T02:51:00.508Z,101606.78
2022-09-02T02:53:29.660Z,101596.53
2022-09-02T02:55:57.292Z,101603.13
2022-09-02T02:58:24.950Z,101606.78
2022-09-02T03:00:52.614Z,101593.44
2022-09-02T03:03:22.551Z,101603.97
2022-09-02T03:05:52.576Z,101596.09
2022-09-02T03:08:22.506Z,101596.94
2022-09-02T03:10:53.884Z,101587.09
2022-09-02T03:13:22.639Z,101590.75
2022-09-02T03:15:50.792Z,101590.06
2022-09-02T03:18:19.179Z,101597.25
2022-09-02T03:20:46.964Z,101585.72
2022-09-02T03:23:16.072Z,101586.00
2022-09-02T03:25:44.809Z,101593.88
2022-09-02T03:28:12.931Z,101593.03
2022-09-02T03:30:41.610Z,101598.38
2022-09-02T03:33:09.600Z,101586.00
2022-09-02T03:35:40.603Z,101591.34
2022-09-02T03:38:09.151Z,101592.34
2022-09-02T03:40:38.455Z,101593.34
2022-09-02T03:43:06.341Z,101584.63
2022-09-02T03:45:34.021Z,101579.28
2022-09-02T03:48:01.726Z,101587.31
2022-09-02T03:50:32.118Z,101577.63
2022-09-02T03:53:00.949Z,101568.59
2022-09-02T03:55:29.076Z,101565.94
2022-09-02T03:57:58.331Z,101568.59
2022-09-02T04:00:29.079Z,101565.94
2022-09-02T04:02:57.272Z,101568.59
2022-09-02T04:05:25.825Z,101559.03
2022-09-02T04:07:53.522Z,101561.59
2022-09-02T04:10:22.041Z,101559.59
2022-09-02T04:12:50.099Z,101559.75
2022-09-02T04:15:20.064Z,101563.28
2022-09-02T04:17:47.705Z,101559.75
2022-09-02T04:20:17.620Z,101558.91
2022-09-02T04:22:45.554Z,101554.53
2022-09-02T04:25:13.344Z,101559.88
2022-09-02T04:27:41.295Z,101552.88
2022-09-02T04:30:10.605Z,101551.19
2022-09-02T04:32:40.956Z,101548.34
2022-09-02T04:35:09.473Z,101553.00
2022-09-02T04:37:37.148Z,101552.19
2022-09-02T04:40:05.489Z,101551.50
2022-09-02T04:42:34.111Z,101542.75
2022-09-02T04:45:01.730Z,101547.16
2022-09-02T04:47:29.561Z,101543.75
2022-09-02T04:49:58.678Z,101550.78
2022-09-02T04:52:26.791Z,101550.09
2022-09-02T04:54:54.444Z,101551.09
2022-09-02T04:57:22.422Z,101553.75
2022-09-02T04:59:50.070Z,101549.41
2022-09-02T05:02:20.255Z,101561.06
2022-09-02T05:04:48.266Z,101549.72
2022-09-02T05:07:17.239Z,101554.06
2022-09-02T05:09:45.413Z,101565.00
2022-09-02T05:12:14.618Z,101563.06
2022-09-02T05:14:43.490Z,101551.38
2022-09-02T05:17:11.147Z,101553.06
2022-09-02T05:19:38.845Z,101559.41
2022-09-02T05:22:06.480Z,101550.41
2022-09-02T05:24:35.430Z,101557.41
2022-09-02T05:27:03.095Z,101562.75
2022-09-02T05:29:30.788Z,101559.41
2022-09-02T05:31:58.643Z,101564.44
2022-09-02T05:34:26.481Z,101555.59
2022-09-02T05:36:54.117Z,101558.94
2022-09-02T05:39:21.774Z,101557.09
2022-09-02T05:41:50.768Z,101557.09
2022-09-02T05:44:18.447Z,101554.59
2022-09-02T05:46:48.928Z,101552.75
2022-09-02T05:49:18.336Z,101554.44
2022-09-02T05:51:48.653Z,101554.31
2022-09-02T05:54:18.676Z,101550.66
2022-09-02T05:56:48.304Z,101551.50
2022-09-02T05:59:17.284Z,101558.50
2022-09-02T06:01:45.530Z,101552.34
2022-09-02T06:04:13.601Z,101553.16
2022-09-02T06:06:42.652Z,101552.19
2022-09-02T06:09:12.659Z,101558.22
2022-09-02T06:11:46.532Z,101549.50
2022-09-02T06:14:15.063Z,101555.53
2022-09-02T06:16:44.849Z,101551.88
2022-09-02T06:19:15.332Z,101551.88
2022-09-02T06:21:46.832Z,101552.59
2022-09-02T06:24:14.788Z,101555.09
2022-09-02T06:26:42.971Z,101547.09
2022-09-02T06:29:11.438Z,101551.44
2022-09-02T06:31:42.704Z,101545.25
2022-09-02T06:34:14.160Z,101549.59
2022-09-02T06:36:42.190Z,101547.94
2022-09-02T06:39:12.300Z,101547.25
2022-09-02T06:41:41.252Z,101547.94
2022-09-02T06:44:10.104Z,101553.13
2022-09-02T06:46:39.502Z,101549.44
2022-09-02T06:49:09.319Z,101545.66
2022-09-02T06:51:39.925Z,101543.69
2022-09-02T06:54:09.168Z,101539.03
2022-09-02T06:56:37.300Z,101542.38
2022-09-02T06:59:05.985Z,101544.63
2022-09-02T07:01:34.429Z,101537.84
2022-09-02T07:04:19.837Z,101542.03
2022-09-02T07:06:51.608Z,101541.72
2022-09-02T07:09:22.934Z,101536.94
2022-09-02T07:11:51.288Z,101545.47
2022-09-02T07:14:21.054Z,101537.22
2022-09-02T07:16:50.697Z,101548.72
2022-09-02T07:19:20.768Z,101547.03
2022-09-02T07:21:50.627Z,101533.19
2022-09-02T07:24:18.930Z,101535.47
2022-09-02T07:26:48.130Z,101538.53
2022-09-02T07:29:16.105Z,101534.84
2022-09-02T07:31:45.961Z,101531.03
2022-09-02T07:34:14.504Z,101534.53
2022-09-02T07:36:42.652Z,101538.72
2022-09-02T07:39:13.253Z,101535.78
2022-09-02T07:41:45.761Z,101531.94
2022-09-02T07:44:14.049Z,101533.63
2022-09-02T07:46:42.114Z,101529.66
2022-09-02T07:49:14.044Z,101529.19
2022-09-02T07:51:44.748Z,101521.03
2022-09-02T07:54:14.381Z,101529.91
2022-09-02T07:56:42.554Z,101525.22
2022-09-02T07:59:10.705Z,101523.91
2022-09-02T08:01:38.886Z,101531.47
2022-09-02T08:04:07.198Z,101518.50
2022-09-02T08:06:35.419Z,101521.53
2022-09-02T08:09:03.444Z,101526.59
2022-09-02T08:11:33.778Z,101524.28
2022-09-02T08:14:03.093Z,101529.63
2022-09-02T08:16:30.920Z,101513.28
2022-09-02T08:18:58.942Z,101521.97
2022-09-02T08:21:26.682Z,101514.00
2022-09-02T08:23:54.403Z,101509.72
2022-09-02T08:26:22.992Z,101511.59
2022-09-02T08:28:52.424Z,101504.31
2022-09-02T08:31:20.581Z,101504.91
2022-09-02T08:33:48.674Z,101508.13
2022-09-02T08:36:16.337Z,101509.38
2022-09-02T08:38:44.490Z,101497.69
2022-09-02T08:41:18.826Z,101509.78
2022-09-02T08:43:48.945Z,101502.78
2022-09-02T08:46:18.929Z,101500.78
2022-09-02T08:48:50.719Z,101498.03
2022-09-02T08:51:21.869Z,101497.19
2022-09-02T08:53:53.317Z,101498.88
2022-09-02T08:56:21.389Z,101493.84
2022-09-02T09:22:33.306Z,101460.34
2022-09-02T09:25:01.190Z,101469.56
2022-09-02T09:27:28.951Z,101468.38
2022-09-02T09:29:57.141Z,101455.28
2022-09-02T09:32:28.934Z,101457.63
2022-09-02T09:35:01.701Z,101458.25
2022-09-02T09:37:36.153Z,101449.50
2022-09-02T09:40:21.594Z,101447.63
2022-09-02T09:42:50.536Z,101444.84
2022-09-02T09:45:21.927Z,101456.19
2022-09-02T09:48:04.542Z,101442.59
2022-09-02T09:50:32.342Z,101448.84
2022-09-02T09:55:13.668Z,101450.69
2022-09-02T09:57:44.542Z,101442.72
2022-09-02T10:00:22.557Z,101439.13
2022-09-02T10:02:52.272Z,101433.41
2022-09-02T10:05:30.080Z,101421.81
2022-09-02T10:07:59.385Z,101429.03
2022-09-02T10:10:31.028Z,101419.56
2022-09-02T10:13:01.053Z,101420.75
2022-09-02T10:15:38.722Z,101417.59
2022-09-02T10:18:15.379Z,101418.00
2022-09-02T10:21:11.587Z,101416.53
2022-09-02T10:23:45.089Z,101418.38
2022-09-02T10:29:12.877Z,101410.09
2022-09-02T10:31:47.895Z,101401.59
2022-09-02T10:34:22.478Z,101400.56
2022-09-02T10:37:12.550Z,101400.38
2022-09-02T10:39:59.910Z,101399.19
2022-09-02T10:42:34.990Z,101395.47
2022-09-02T10:45:07.553Z,101390.91
2022-09-02T10:47:38.254Z,101391.75
2022-09-02T10:50:14.043Z,101394.53
2022-09-02T10:53:09.762Z,101390.69
2022-09-02T10:55:41.819Z,101389.97
2022-09-02T10:58:15.448Z,101399.09
2022-09-02T11:00:50.544Z,101392.19
2022-09-02T11:03:23.627Z,101380.00
2022-09-02T11:05:53.372Z,101380.25
2022-09-02T11:08:28.430Z,101381.25
2022-09-02T11:11:04.388Z,101373.50
2022-09-02T11:13:38.965Z,101380.16
2022-09-02T11:16:11.845Z,101371.09
2022-09-02T11:19:04.354Z,101374.72
2022-09-02T11:21:41.543Z,101369.19
2022-09-02T11:24:12.238Z,101368.78
2022-09-02T11:26:42.807Z,101361.38
2022-09-02T11:29:13.826Z,101362.69
2022-09-02T11:31:44.706Z,101358.22
2022-09-02T11:34:22.164Z,101352.03
2022-09-02T11:36:50.025Z,101353.34
2022-09-02T11:39:30.590Z,101354.22
2022-09-02T11:42:12.245Z,101346.94
2022-09-02T11:44:52.887Z,101351.69
2022-09-02T11:47:39.296Z,101347.38
2022-09-02T11:50:39.506Z,101343.44
2022-09-02T11:53:19.278Z,101336.59
2022-09-02T11:55:48.787Z,101337.56
2022-09-02T11:58:31.798Z,101335.97
2022-09-02T12:01:01.850Z,101339.25
2022-09-02T12:03:52.051Z,101329.78
2022-09-02T12:06:22.058Z,101324.88
2022-09-02T12:09:02.888Z,101332.84
2022-09-02T12:12:02.435Z,101323.88
2022-09-02T12:15:06.726Z,101327.41
2022-09-02T12:17:40.667Z,101332.38
2022-09-02T12:20:10.055Z,101326.72
2022-09-02T12:22:42.535Z,101327.28
2022-09-02T12:25:42.260Z,101316.78
2022-09-02T12:28:25.827Z,101319.16
2022-09-02T12:31:13.109Z,101315.78
2022-09-02T12:33:41.782Z,101321.88
2022-09-02T12:36:10.965Z,101305.44
2022-09-02T12:38:41.522Z,101304.19
2022-09-02T12:41:15.439Z,101302.97
2022-09-02T12:43:56.663Z,101298.25
2022-09-02T12:46:27.746Z,101303.34
2022-09-02T12:49:00.712Z,101295.06
2022-09-02T12:51:43.100Z,101283.59
2022-09-02T12:54:12.628Z,101301.09
2022-09-02T12:56:40.095Z,101297.28
2022-09-02T12:59:07.493Z,101295.78
2022-09-02T13:01:46.518Z,101293.94
2022-09-02T13:04:26.274Z,101304.13
2022-09-02T13:07:14.218Z,101290.50
2022-09-02T13:09:51.558Z,101297.69
2022-09-02T13:12:35.443Z,101292.81
2022-09-02T13:15:09.513Z,101296.25
2022-09-02T13:17:47.515Z,101292.66
2022-09-02T13:20:41.918Z,101291.66
2022-09-02T13:23:31.639Z,101289.91
2022-09-02T13:26:32.964Z,101292.13
2022-09-02T13:29:51.314Z,101293.69
2022-09-02T13:32:24.146Z,101297.84
2022-09-02T13:34:55.065Z,101288.25
2022-09-02T13:37:30.780Z,101286.25
2022-09-02T13:39:59.289Z,101288.16
2022-09-02T13:42:31.979Z,101283.00
2022-09-02T13:45:11.041Z,101277.03
2022-09-02T13:47:38.915Z,101281.38
2022-09-02T13:50:07.674Z,101277.47
2022-09-02T13:53:34.690Z,101273.38
2022-09-02T13:55:27.175Z,101268.22
2022-09-02T13:58:00.094Z,101272.94
2022-09-02T14:00:32.600Z,101265.47
2022-09-02T14:03:03.048Z,101273.94
2022-09-02T14:05:33.006Z,101261.88
2022-09-02T14:08:03.536Z,101261.72
2022-09-02T14:10:32.488Z,101261.13
2022-09-02T14:13:01.345Z,101257.69
2022-09-02T14:15:29.848Z,101248.41
2022-09-02T14:18:09.940Z,101247.19
2022-09-02T14:20:37.838Z,101249.38
2022-09-02T14:23:05.789Z,101243.72
2022-09-02T14:25:37.727Z,101242.53
2022-09-02T14:28:13.445Z,101236.72
2022-09-02T14:30:43.161Z,101239.41
2022-09-02T14:33:18.241Z,101228.25
2022-09-02T14:36:00.154Z,101228.88
2022-09-02T14:38:29.929Z,101230.13
2022-09-02T14:41:02.885Z,101228.25
2022-09-02T14:43:41.409Z,101222.19
2022-09-02T14:46:17.201Z,101219.06
2022-09-02T14:48:44.718Z,101223.34
2022-09-02T14:51:12.421Z,101216.50
2022-09-02T14:53:44.598Z,101218.38
2022-09-02T14:56:12.312Z,101225.00
2022-09-02T14:58:41.308Z,101219.59
2022-09-02T15:01:09.681Z,101222.47
2022-09-02T15:03:39.069Z,101221.66
2022-09-02T15:06:09.850Z,101212.56
2022-09-02T15:08:39.645Z,101206.28
2022-09-02T15:11:07.970Z,101204.63
2022-09-02T15:13:35.701Z,101206.50
2022-09-02T15:16:05.110Z,101197.56
2022-09-02T15:18:32.757Z,101200.47
2022-09-02T15:21:00.708Z,101189.09
2022-09-02T15:23:32.566Z,101184.84
2022-09-02T15:26:02.499Z,101180.28
2022-09-02T15:28:30.860Z,101182.78
2022-09-02T15:30:59.605Z,101183.25
2022-09-02T15:33:28.943Z,101181.22
2022-09-02T15:35:56.653Z,101180.25
2022-09-02T15:38:24.330Z,101180.44
2022-09-02T15:40:51.966Z,101181.69
2022-09-02T15:43:21.421Z,101175.44
2022-09-02T15:45:49.102Z,101176.22
2022-09-02T15:48:16.769Z,101171.44
2022-09-02T15:50:46.563Z,101170.81
2022-09-02T15:53:15.457Z,101175.44
2022-09-02T15:55:43.114Z,101165.28
2022-09-02T15:58:11.528Z,101171.31
2022-09-02T16:00:43.847Z,101157.41
2022-09-02T16:03:11.701Z,101158.03
2022-09-02T16:05:39.360Z,101148.88
2022-09-02T16:08:08.652Z,101149.13
2022-09-02T16:10:37.671Z,101154.09
2022-09-02T16:13:05.644Z,101149.75
2022-09-02T16:15:34.399Z,101146.84
2022-09-02T16:18:02.167Z,101151.78
2022-09-02T16:20:29.878Z,101147.34
2022-09-02T16:22:57.813Z,101146.72
2022-09-02T16:25:26.944Z,101141.50
2022-09-02T16:27:55.795Z,101138.97
2022-09-02T16:30:23.718Z,101138.94
2022-09-02T16:32:51.673Z,101142.25
2022-09-02T16:35:19.398Z,101137.44
2022-09-02T16:37:47.474Z,101128.28
2022-09-02T16:40:21.757Z,101138.66
2022-09-02T16:42:51.045Z,101137.81
2022-09-02T16:45:19.526Z,101129.50
2022-09-02T16:47:47.234Z,101133.44
2022-09-02T16:50:14.995Z,101127.59
2022-09-02T16:52:43.466Z,101127.16
2022-09-02T16:55:11.338Z,101122.94
2022-09-02T16:57:39.095Z,101110.28
2022-09-02T17:00:10.353Z,101121.69
2022-09-02T17:02:38.110Z,101118.38
2022-09-02T17:05:07.949Z,101116.06
2022-09-02T17:07:35.618Z,101120.19
2022-09-02T17:10:03.393Z,101116.84
2022-09-02T17:12:31.022Z,101119.31
2022-09-02T17:14:58.685Z,101115.13
2022-09-02T17:17:27.729Z,101119.06
2022-09-02T17:19:55.377Z,101114.72
2022-09-02T17:22:22.981Z,101113.44
2022-09-02T17:24:53.774Z,101116.78
2022-09-02T17:27:21.650Z,101117.81
2022-09-02T17:29:50.345Z,101118.19
2022-09-02T17:32:18.785Z,101116.53
2022-09-02T17:34:50.761Z,101110.50
2022-09-02T17:37:18.469Z,101107.56
2022-09-02T17:39:46.846Z,101111.69
2022-09-02T17:42:13.558Z,101115.41
2022-09-02T17:44:42.739Z,101109.56
2022-09-02T17:47:11.931Z,101121.59
2022-09-02T17:49:41.851Z,101116.97
2022-09-02T17:52:13.277Z,101121.06
2022-09-02T17:54:42.117Z,101116.91
2022-09-02T17:57:20.244Z,101117.13
2022-09-02T18:00:03.321Z,101113.97
2022-09-02T18:02:40.405Z,101111.84
2022-09-02T18:05:17.155Z,101121.31
2022-09-02T18:07:50.990Z,101119.03
2022-09-02T18:10:20.504Z,101126.22
2022-09-02T18:12:48.194Z,101119.16
2022-09-02T18:15:18.417Z,101123.72
2022-09-02T18:17:47.996Z,101116.00
2022-09-02T18:20:22.876Z,101109.16
2022-09-02T18:23:12.925Z,101113.25
2022-09-02T18:25:50.668Z,101120.88
2022-09-02T18:28:28.634Z,101117.75
2022-09-02T18:31:04.204Z,101118.53
2022-09-02T18:33:43.254Z,101122.25
2022-09-02T18:36:20.662Z,101120.94
2022-09-02T18:38:56.469Z,101129.41
2022-09-02T18:41:38.190Z,101124.78
2022-09-02T18:44:15.255Z,101126.63
2022-09-02T18:46:48.745Z,101127.00
2022-09-02T18:49:16.481Z,101129.44
2022-09-02T18:51:45.837Z,101125.09
2022-09-02T18:54:18.989Z,101131.47
2022-09-02T18:56:51.304Z,101127.31
2022-09-02T18:59:22.843Z,101128.72
2022-09-02T19:01:57.208Z,101127.41
2022-09-02T19:04:29.449Z,101134.81
2022-09-02T19:07:17.766Z,101129.16
2022-09-02T19:09:46.668Z,101138.25
2022-09-02T19:12:14.535Z,101145.03
2022-09-02T19:14:42.217Z,101140.66
2022-09-02T19:17:12.559Z,101146.44
2022-09-02T19:19:40.222Z,101150.97
2022-09-02T19:22:10.395Z,101147.81
2022-09-02T19:24:42.686Z,101152.38
2022-09-02T19:27:14.359Z,101154.59
2022-09-02T19:29:44.694Z,101155.97
2022-09-02T19:32:13.024Z,101151.19
2022-09-02T19:34:43.180Z,101146.63
2022-09-02T19:37:12.238Z,101154.06
2022-09-02T19:39:40.366Z,101157.75
2022-09-02T19:42:08.830Z,101159.78
2022-09-02T19:44:38.140Z,101162.69
2022-09-02T19:48:02.631Z,101164.88
2022-09-02T19:49:53.704Z,101163.41
2022-09-02T19:52:21.403Z,101172.50
2022-09-02T19:54:49.042Z,101164.63
2022-09-02T19:57:16.749Z,101160.44
2022-09-02T19:59:45.783Z,101172.88
2022-09-02T20:02:13.762Z,101167.03
2022-09-02T20:04:41.537Z,101165.34
2022-09-02T20:07:09.146Z,101162.03
2022-09-02T20:09:36.894Z,101158.66
2022-09-02T20:12:04.728Z,101157.00
2022-09-02T20:14:32.400Z,101165.25
2022-09-02T20:17:05.027Z,101166.09
2022-09-02T20:19:33.737Z,101165.44
2022-09-02T20:22:01.866Z,101170.16
2022-09-02T20:24:32.251Z,101164.78
2022-09-02T20:27:05.255Z,101160.59
2022-09-02T20:29:44.212Z,101159.13
2022-09-02T20:32:19.345Z,101170.25
2022-09-02T20:34:54.443Z,101159.19
2022-09-02T20:37:32.251Z,101161.69
2022-09-02T20:40:16.546Z,101157.50
2022-09-02T20:43:12.691Z,101164.25
2022-09-02T20:45:41.592Z,101161.94
2022-09-02T20:48:25.108Z,101155.25
2022-09-02T20:50:58.617Z,101170.53
2022-09-02T20:53:45.105Z,101157.28
2022-09-02T20:56:20.413Z,101155.63
2022-09-02T20:58:53.468Z,101160.88
2022-09-02T21:01:24.732Z,101160.53
2022-09-02T21:03:58.460Z,101157.19
2022-09-02T21:06:28.382Z,101157.06
2022-09-02T21:09:01.558Z,101164.13
2022-09-02T21:11:35.385Z,101161.97
2022-09-02T21:14:08.394Z,101159.47
2022-09-02T21:16:38.666Z,101156.13
2022-09-02T21:19:12.571Z,101160.00
2022-09-02T21:21:44.296Z,101163.91
2022-09-02T21:24:16.858Z,101151.50
2022-09-02T21:26:49.315Z,101155.53
2022-09-02T21:29:21.249Z,101146.00
2022-09-02T21:31:51.253Z,101151.72
2022-09-02T21:34:26.293Z,101148.19
2022-09-02T21:36:55.974Z,101147.94
2022-09-02T21:39:26.802Z,101144.75
2022-09-02T21:42:02.185Z,101142.25
2022-09-02T21:44:36.332Z,101140.78
2022-09-02T21:47:08.063Z,101142.31
2022-09-02T21:49:48.137Z,101145.66
2022-09-02T21:52:26.845Z,101144.34
2022-09-02T21:54:58.877Z,101145.53
2022-09-02T21:57:38.629Z,101145.88
2022-09-02T22:00:09.733Z,101139.72
2022-09-02T22:02:46.309Z,101141.19
2022-09-02T22:05:25.313Z,101142.56
2022-09-02T22:07:59.887Z,101141.06
2022-09-02T22:10:33.786Z,101142.91
2022-09-02T22:13:03.424Z,101139.75
2022-09-02T22:15:37.544Z,101145.13
2022-09-02T22:18:14.808Z,101142.63
2022-09-02T22:20:45.204Z,101142.13
2022-09-02T22:23:23.753Z,101144.16
2022-09-02T22:25:52.749Z,101134.97
2022-09-02T22:28:26.584Z,101132.69
2022-09-02T22:30:59.694Z,101144.53
2022-09-02T22:33:33.978Z,101145.75
2022-09-02T22:36:08.674Z,101144.25
2022-09-02T22:38:40.930Z,101135.53
2022-09-02T22:41:19.144Z,101140.06
2022-09-02T22:43:50.315Z,101144.13
2022-09-02T22:46:52.217Z,101139.59
2022-09-02T22:49:44.652Z,101138.25
2022-09-02T22:52:44.729Z,101136.59
2022-09-02T22:55:13.220Z,101136.94
2022-09-02T22:57:49.552Z,101134.91
2022-09-02T23:00:18.516Z,101132.41
2022-09-02T23:02:50.877Z,101132.59
2022-09-02T23:05:47.954Z,101129.09
2022-09-02T23:08:20.414Z,101123.22
2022-09-02T23:10:54.221Z,101124.06
2022-09-02T23:13:31.935Z,101122.38
2022-09-02T23:16:06.234Z,101116.38
2022-09-02T23:18:40.319Z,101125.63
2022-09-02T23:21:16.918Z,101123.91
2022-09-02T23:23:51.258Z,101118.91
2022-09-02T23:26:25.934Z,101115.56
2022-09-02T23:29:02.593Z,101120.94
2022-09-02T23:31:39.200Z,101128.28
2022-09-02T23:34:15.494Z,101121.28
2022-09-02T23:36:47.333Z,101120.00
2022-09-02T23:39:25.025Z,101124.31
2022-09-02T23:41:53.434Z,101108.41
2022-09-02T23:44:22.903Z,101114.78
2022-09-02T23:47:01.455Z,101106.06
2022-09-02T23:49:36.175Z,101106.88
2022-09-02T23:52:09.891Z,101103.56
2022-09-02T23:54:51.036Z,101103.09
2022-09-02T23:57:34.540Z,101103.22
